Terminal Aerodrome Forecast
Issued by NWS Cleveland, OH

Home | Current Version | Previous Version | Graphics & Text | Print | Product List | Glossary On
Versions: 1 2 3 4 5 6 7 8 9 10 11 12 13 14
000
FTUS41 KCLE 091736
TAFTOL
TAF
KTOL 091736Z 0918/1018 26012KT P6SM SCT015 OVC025
      TEMPO 0918/0922 3SM -SHSN BKN015
     FM092300 26009KT P6SM OVC015=

USA.gov is the U.S. government's official web portal to all federal, state and local government web resources and services.